Time;durP1;ratioP1;P1;durP2;ratioP2;P2;SDS_P1;SDS_P2;PMS_P1;PMS_P2;Temp;Humidity;BMP_temperature;BMP_pressure;BME280_temperature;BME280_humidity;BME280_pressure;Samples;Min_cycle;Max_cycle;Signal;HPM_P1;HPM_P2
2021/10/25 00:02:01;;;;;;;13.00;6.13;;;2.70;97.30;;;;;;5053848;28;20418;-80
2021/10/25 00:04:27;;;;;;;10.53;5.60;;;2.70;97.30;;;;;;5053474;28;20202;-79
2021/10/25 00:06:52;;;;;;;11.00;5.30;;;2.70;97.30;;;;;;5053860;28;20454;-80
2021/10/25 00:09:19;;;;;;;13.63;5.83;;;2.70;97.30;;;;;;5053480;28;20180;-80
2021/10/25 00:11:44;;;;;;;7.43;4.80;;;2.70;97.30;;;;;;5053833;28;20555;-79
2021/10/25 00:14:11;;;;;;;17.10;5.97;;;2.70;97.30;;;;;;5053589;28;20445;-80
2021/10/25 00:16:38;;;;;;;11.40;5.17;;;2.60;97.30;;;;;;5053707;28;20195;-80
2021/10/25 00:19:04;;;;;;;9.77;5.50;;;2.60;97.30;;;;;;5046083;28;20415;-79
2021/10/25 00:21:29;;;;;;;10.57;5.47;;;2.60;97.30;;;;;;5032525;28;20775;-79
2021/10/25 00:23:55;;;;;;;8.03;5.10;;;2.50;97.30;;;;;;5033276;28;20463;-79
2021/10/25 00:26:21;;;;;;;10.30;6.27;;;2.50;97.30;;;;;;5033124;28;20260;-81
2021/10/25 00:28:46;;;;;;;13.10;5.37;;;2.50;97.30;;;;;;5032759;28;20646;-79
2021/10/25 00:31:12;;;;;;;13.13;5.77;;;2.50;97.30;;;;;;5033131;28;20187;-80
2021/10/25 00:33:38;;;;;;;10.17;5.37;;;2.50;97.30;;;;;;5032656;28;20685;-79
2021/10/25 00:36:03;;;;;;;10.27;5.10;;;2.50;97.30;;;;;;5032766;28;20439;-80
2021/10/25 00:38:29;;;;;;;14.83;6.00;;;2.50;97.30;;;;;;5032750;28;20296;-80
2021/10/25 00:40:55;;;;;;;18.90;6.10;;;2.50;97.30;;;;;;5034560;28;20185;-79
2021/10/25 00:43:20;;;;;;;8.87;5.20;;;2.40;97.30;;;;;;5032765;28;20208;-80
2021/10/25 00:45:46;;;;;;;12.13;5.23;;;2.40;97.30;;;;;;5036423;28;20207;-79
2021/10/25 00:48:11;;;;;;;9.77;5.50;;;2.40;97.30;;;;;;5036971;28;20173;-79
2021/10/25 00:50:39;;;;;;;8.87;5.40;;;2.30;97.30;;;;;;5037410;28;20191;-79
2021/10/25 00:53:06;;;;;;;15.87;5.30;;;2.30;97.30;;;;;;5036925;28;20276;-79
2021/10/25 00:55:32;;;;;;;7.97;4.77;;;2.30;97.30;;;;;;5037666;28;20980;-80
2021/10/25 00:57:58;;;;;;;9.67;5.00;;;2.20;97.30;;;;;;5037303;28;20458;-80
2021/10/25 01:00:24;;;;;;;14.60;5.67;;;2.20;97.30;;;;;;5037536;28;20411;-79
2021/10/25 01:02:49;;;;;;;14.37;5.43;;;2.20;97.30;;;;;;5037326;28;20429;-80
2021/10/25 01:05:16;;;;;;;10.83;5.03;;;2.20;97.30;;;;;;5037874;28;20518;-79
2021/10/25 01:07:42;;;;;;;9.50;5.47;;;2.10;97.30;;;;;;5038527;28;20322;-80
2021/10/25 01:10:08;;;;;;;10.73;5.70;;;2.10;97.30;;;;;;5037556;28;20425;-79
2021/10/25 01:12:35;;;;;;;12.53;5.10;;;2.10;97.30;;;;;;5035267;28;20465;-80
2021/10/25 01:15:00;;;;;;;8.70;5.50;;;2.10;97.30;;;;;;5035422;28;20477;-81
2021/10/25 01:17:27;;;;;;;11.80;6.73;;;2.00;97.30;;;;;;5035591;28;20491;-79
2021/10/25 01:19:54;;;;;;;16.60;6.53;;;2.00;97.30;;;;;;5036708;28;20172;-80
2021/10/25 01:22:22;;;;;;;20.63;7.40;;;2.00;97.30;;;;;;5037751;28;20411;-79
2021/10/25 01:24:50;;;;;;;16.03;5.90;;;2.10;97.30;;;;;;5036766;28;20966;-79
2021/10/25 01:27:16;;;;;;;14.30;6.50;;;2.10;97.30;;;;;;5036973;28;20430;-80
2021/10/25 01:29:42;;;;;;;19.30;6.90;;;2.20;97.30;;;;;;5036760;28;20472;-80
2021/10/25 01:32:07;;;;;;;22.83;6.73;;;2.20;97.30;;;;;;5037874;28;20202;-79
2021/10/25 01:34:33;;;;;;;10.17;6.10;;;2.30;97.30;;;;;;5037675;28;20200;-80
2021/10/25 01:36:58;;;;;;;10.63;6.93;;;2.40;97.30;;;;;;5036418;28;20212;-80
2021/10/25 01:39:24;;;;;;;13.43;6.20;;;2.40;97.30;;;;;;5037195;28;20179;-81
2021/10/25 01:41:50;;;;;;;12.20;5.93;;;2.40;97.30;;;;;;5038392;28;20206;-81
2021/10/25 01:44:15;;;;;;;14.10;6.60;;;2.30;97.30;;;;;;5037022;28;20204;-79
2021/10/25 01:46:42;;;;;;;15.10;6.17;;;2.30;97.30;;;;;;5036503;28;20275;-79
2021/10/25 01:49:08;;;;;;;17.53;5.93;;;2.30;97.30;;;;;;5036242;28;20211;-79
2021/10/25 01:51:35;;;;;;;14.60;6.83;;;2.30;97.30;;;;;;5036225;28;20419;-79
2021/10/25 01:54:01;;;;;;;23.10;7.20;;;2.30;97.30;;;;;;5036136;28;20212;-80
2021/10/25 01:56:27;;;;;;;16.77;6.43;;;2.40;97.30;;;;;;5035160;28;20466;-79
2021/10/25 01:58:53;;;;;;;11.13;6.20;;;2.40;97.30;;;;;;5036224;28;20411;-79
2021/10/25 02:01:21;;;;;;;16.10;7.23;;;2.40;97.30;;;;;;5035929;28;20561;-81
2021/10/25 02:03:47;;;;;;;14.17;6.73;;;2.50;97.30;;;;;;5035238;28;20546;-80
2021/10/25 02:06:13;;;;;;;10.80;5.60;;;2.50;97.30;;;;;;5033771;28;20478;-80
2021/10/25 02:08:38;;;;;;;12.03;5.90;;;2.50;97.30;;;;;;5033858;28;20864;-80
2021/10/25 02:11:04;;;;;;;17.83;6.97;;;2.50;97.30;;;;;;5033733;28;20509;-81
2021/10/25 02:13:30;;;;;;;11.53;5.93;;;2.60;97.30;;;;;;5033841;28;20651;-80
2021/10/25 02:15:56;;;;;;;15.03;6.00;;;2.60;97.30;;;;;;5033749;28;20209;-80
2021/10/25 02:18:22;;;;;;;11.80;5.40;;;2.50;97.30;;;;;;5033753;28;20514;-80
2021/10/25 02:20:49;;;;;;;13.50;7.10;;;2.50;97.30;;;;;;5034308;28;20241;-80
2021/10/25 02:23:14;;;;;;;10.93;5.50;;;2.50;97.30;;;;;;5037534;28;20455;-79
2021/10/25 02:25:40;;;;;;;15.23;5.70;;;2.60;97.30;;;;;;5033934;28;20445;-80
2021/10/25 02:28:06;;;;;;;12.90;5.80;;;2.60;97.30;;;;;;5033959;28;20582;-80
2021/10/25 02:30:33;;;;;;;9.90;5.53;;;2.70;97.30;;;;;;5033537;28;20177;-81
2021/10/25 02:32:59;;;;;;;10.57;5.27;;;2.80;97.30;;;;;;5033819;28;20269;-80
2021/10/25 02:35:25;;;;;;;15.97;6.67;;;2.90;97.30;;;;;;5033622;28;21013;-79
2021/10/25 02:37:54;;;;;;;10.23;4.90;;;2.90;97.30;;;;;;5034798;28;20554;-79
2021/10/25 02:40:21;;;;;;;11.70;5.53;;;3.00;97.30;;;;;;5033285;28;20794;-80
2021/10/25 02:42:47;;;;;;;12.97;6.20;;;3.10;97.30;;;;;;5033258;28;20438;-80
2021/10/25 02:45:12;;;;;;;11.83;5.40;;;3.10;97.30;;;;;;5033678;28;20438;-80
2021/10/25 02:47:38;;;;;;;16.00;5.97;;;3.10;97.30;;;;;;5034339;28;20190;-80
2021/10/25 02:50:04;;;;;;;10.33;5.13;;;3.20;97.30;;;;;;5035312;28;20212;-79
2021/10/25 02:52:30;;;;;;;14.90;5.37;;;3.20;97.30;;;;;;5035471;28;20204;-80
2021/10/25 02:54:56;;;;;;;14.07;5.53;;;3.20;97.30;;;;;;5034875;28;20457;-80
2021/10/25 02:57:21;;;;;;;7.63;5.50;;;3.20;97.30;;;;;;5034951;28;20549;-79
2021/10/25 02:59:47;;;;;;;15.77;5.57;;;3.30;97.30;;;;;;5034736;28;20263;-79
2021/10/25 03:02:12;;;;;;;10.77;5.50;;;3.20;97.30;;;;;;5035530;28;20219;-80
2021/10/25 03:04:38;;;;;;;10.43;5.57;;;3.20;97.30;;;;;;5035209;28;20224;-79
2021/10/25 03:07:03;;;;;;;8.80;5.27;;;3.20;97.30;;;;;;5034829;28;20184;-79
2021/10/25 03:09:29;;;;;;;14.77;5.50;;;3.30;97.30;;;;;;5035040;28;20177;-79
2021/10/25 03:11:55;;;;;;;12.23;4.90;;;3.30;97.30;;;;;;5035917;28;20169;-79
2021/10/25 03:14:20;;;;;;;9.43;5.00;;;3.30;97.30;;;;;;5034658;28;20688;-79
2021/10/25 03:16:46;;;;;;;20.00;5.20;;;3.40;97.30;;;;;;5034107;28;20684;-80
2021/10/25 03:19:12;;;;;;;9.60;6.10;;;3.40;97.30;;;;;;5033905;28;20214;-79
2021/10/25 03:21:37;;;;;;;8.77;4.60;;;3.50;97.30;;;;;;5033093;28;20615;-80
2021/10/25 03:24:03;;;;;;;15.70;4.80;;;3.50;97.30;;;;;;5032533;28;20715;-80
2021/10/25 03:26:29;;;;;;;11.00;5.53;;;3.60;97.30;;;;;;5033831;28;20216;-81
2021/10/25 03:28:55;;;;;;;10.40;5.10;;;3.60;97.30;;;;;;5034857;28;20200;-81
2021/10/25 03:31:21;;;;;;;12.53;4.83;;;3.50;97.30;;;;;;5034464;28;20422;-81
2021/10/25 03:33:48;;;;;;;9.63;4.90;;;3.40;97.30;;;;;;5037507;28;20199;-82
2021/10/25 03:36:17;;;;;;;8.97;4.83;;;3.40;97.30;;;;;;5034831;28;20983;-81
2021/10/25 03:38:44;;;;;;;8.50;4.90;;;3.40;97.30;;;;;;5037437;28;20920;-81
2021/10/25 03:41:16;;;;;;;12.30;7.17;;;3.50;97.30;;;;;;5037989;28;20411;-81
2021/10/25 03:43:48;;;;;;;10.33;4.90;;;3.50;97.30;;;;;;5045778;23;20510;-79
2021/10/25 03:46:22;;;;;;;13.33;4.37;;;3.50;97.30;;;;;;5031490;28;20391;-79
2021/10/25 03:48:55;;;;;;;14.53;4.83;;;3.60;97.30;;;;;;5031884;28;20395;-79
2021/10/25 03:51:21;;;;;;;9.90;4.13;;;3.60;97.30;;;;;;5032866;28;20782;-79
2021/10/25 03:53:57;;;;;;;8.97;4.13;;;3.70;97.30;;;;;;5033870;28;20420;-78
2021/10/25 03:56:47;;;;;;;9.23;4.57;;;3.90;97.30;;;;;;5032051;28;20553;-80
2021/10/25 03:59:33;;;;;;;19.93;4.10;;;4.10;97.30;;;;;;5032609;28;20474;-78
2021/10/25 04:02:24;;;;;;;8.07;3.90;;;4.20;97.30;;;;;;5031228;28;20461;-80
2021/10/25 04:29:24;;;;;;;11.50;5.20;;;5.10;97.30;;;;;;5014767;28;21005;-79
2021/10/25 04:31:49;;;;;;;6.30;3.90;;;5.20;97.30;;;;;;5014032;28;20523;-79
2021/10/25 04:34:15;;;;;;;7.63;4.23;;;5.20;97.30;;;;;;5013302;28;20460;-79
2021/10/25 04:36:40;;;;;;;10.80;5.00;;;5.20;97.30;;;;;;5013268;28;20239;-80
2021/10/25 04:39:09;;;;;;;7.30;3.63;;;5.20;97.30;;;;;;5012966;28;20790;-79
2021/10/25 04:41:37;;;;;;;9.33;3.57;;;5.20;97.30;;;;;;5018842;28;20232;-80
2021/10/25 04:44:02;;;;;;;13.93;4.37;;;5.30;97.30;;;;;;5030404;28;21385;-79
2021/10/25 04:46:28;;;;;;;9.40;4.27;;;5.30;97.30;;;;;;5031285;28;20411;-80
2021/10/25 04:48:53;;;;;;;12.57;4.30;;;5.30;97.30;;;;;;5029787;28;20176;-80
2021/10/25 04:51:19;;;;;;;9.90;4.33;;;5.30;97.30;;;;;;5030431;28;20173;-81
2021/10/25 04:53:44;;;;;;;11.90;3.93;;;5.30;97.30;;;;;;5030963;28;20638;-80
2021/10/25 04:56:10;;;;;;;9.93;4.40;;;5.20;97.30;;;;;;5030674;28;20246;-82
2021/10/25 04:58:36;;;;;;;11.77;4.10;;;5.20;97.30;;;;;;5045986;28;20271;-79
2021/10/25 05:01:01;;;;;;;8.10;4.30;;;5.20;97.30;;;;;;5031078;28;20168;-81
2021/10/25 05:03:27;;;;;;;12.53;5.97;;;5.10;97.30;;;;;;5029331;28;20196;-80
2021/10/25 05:05:53;;;;;;;11.03;4.53;;;5.10;97.30;;;;;;5029107;28;20173;-79
2021/10/25 05:08:20;;;;;;;5.57;4.23;;;5.10;97.30;;;;;;5045281;28;20484;-79
2021/10/25 05:10:46;;;;;;;10.20;3.80;;;5.00;97.30;;;;;;5046131;28;20173;-79
2021/10/25 05:13:12;;;;;;;11.07;4.30;;;5.00;97.30;;;;;;5030087;28;20458;-77
2021/10/25 05:15:38;;;;;;;13.53;5.00;;;5.00;97.30;;;;;;5030896;28;20180;-81
2021/10/25 05:18:04;;;;;;;7.97;4.33;;;5.00;97.30;;;;;;5030101;28;20827;-79
2021/10/25 05:20:30;;;;;;;8.60;3.90;;;4.90;97.30;;;;;;5029330;28;20199;-81
2021/10/25 05:22:55;;;;;;;8.53;3.97;;;5.00;97.30;;;;;;5045075;28;21004;-79
2021/10/25 05:25:21;;;;;;;5.50;4.03;;;4.90;97.30;;;;;;5029437;28;20258;-81
2021/10/25 05:27:46;;;;;;;11.67;6.10;;;4.90;97.30;;;;;;5029078;28;20659;-80
2021/10/25 05:30:12;;;;;;;12.17;4.60;;;4.90;97.30;;;;;;5045374;28;20184;-80
2021/10/25 05:32:37;;;;;;;8.30;4.40;;;4.90;97.30;;;;;;5033669;28;20181;-80
2021/10/25 05:35:03;;;;;;;8.13;4.50;;;4.90;97.30;;;;;;5031860;28;20195;-81
2021/10/25 05:37:29;;;;;;;11.03;5.13;;;4.90;97.30;;;;;;5033381;28;20299;-81
2021/10/25 05:39:56;;;;;;;6.53;3.40;;;4.90;97.30;;;;;;5033072;28;20486;-81
2021/10/25 05:42:22;;;;;;;8.20;4.30;;;4.90;97.30;;;;;;5017640;28;20280;-81
2021/10/25 05:44:48;;;;;;;9.83;4.77;;;4.90;97.30;;;;;;5012458;28;20579;-80
2021/10/25 05:47:13;;;;;;;11.07;4.80;;;5.00;97.30;;;;;;5012283;28;20216;-81
2021/10/25 05:49:39;;;;;;;8.07;4.43;;;5.00;97.30;;;;;;5011424;28;20181;-80
2021/10/25 05:52:05;;;;;;;8.90;4.67;;;4.90;97.30;;;;;;5027589;28;20430;-80
2021/10/25 05:54:31;;;;;;;8.30;4.23;;;5.00;97.30;;;;;;5029798;28;20575;-80
2021/10/25 05:56:56;;;;;;;6.83;3.80;;;5.00;97.30;;;;;;5012457;28;20221;-80
2021/10/25 05:59:25;;;;;;;5.87;3.40;;;5.00;97.30;;;;;;5030342;28;20492;-81
2021/10/25 06:02:13;;;;;;;8.67;4.33;;;5.00;97.30;;;;;;5014644;28;20537;-81
2021/10/25 06:04:38;;;;;;;10.13;4.17;;;5.00;97.30;;;;;;5014559;28;20460;-80
2021/10/25 06:07:04;;;;;;;8.43;4.27;;;5.00;97.30;;;;;;5015767;28;20451;-80
2021/10/25 06:09:33;;;;;;;6.97;4.13;;;5.00;97.30;;;;;;5016608;28;20177;-79
2021/10/25 06:12:01;;;;;;;8.60;4.40;;;5.00;97.30;;;;;;5015390;28;20166;-81
2021/10/25 06:14:31;;;;;;;7.13;4.07;;;5.00;97.30;;;;;;5014872;28;20495;-79
2021/10/25 06:17:00;;;;;;;14.50;4.23;;;5.00;97.30;;;;;;5013888;28;20460;-79
2021/10/25 06:19:25;;;;;;;9.17;5.23;;;5.00;97.30;;;;;;5031564;28;20424;-80
2021/10/25 06:21:52;;;;;;;9.40;4.90;;;5.00;97.30;;;;;;5015242;28;21092;-80
2021/10/25 06:24:18;;;;;;;6.60;3.43;;;5.00;97.30;;;;;;5020124;28;20595;-81
2021/10/25 06:26:44;;;;;;;13.30;5.10;;;5.00;97.30;;;;;;5035604;28;20423;-80
2021/10/25 06:29:09;;;;;;;8.53;4.17;;;5.00;97.30;;;;;;5035316;28;20263;-80
2021/10/25 06:31:35;;;;;;;12.83;4.13;;;5.00;97.30;;;;;;5034820;28;20185;-79
2021/10/25 06:34:07;;;;;;;7.17;4.50;;;5.10;97.30;;;;;;5034051;28;20201;-80
2021/10/25 06:36:35;;;;;;;10.43;4.67;;;5.10;97.30;;;;;;5032430;28;20212;-80
2021/10/25 06:39:11;;;;;;;8.80;4.83;;;5.10;97.30;;;;;;5031141;28;20815;-80
2021/10/25 06:41:36;;;;;;;9.90;4.30;;;5.20;97.30;;;;;;5030992;28;20925;-81
2021/10/25 06:44:02;;;;;;;7.70;5.03;;;5.20;97.30;;;;;;5033159;28;20538;-80
2021/10/25 06:46:28;;;;;;;9.40;4.90;;;5.30;97.30;;;;;;5033747;28;20188;-80
2021/10/25 06:48:53;;;;;;;10.53;4.10;;;5.40;97.30;;;;;;5051083;28;20180;-79
2021/10/25 06:51:19;;;;;;;9.37;5.33;;;5.40;97.30;;;;;;5048914;28;20662;-81
2021/10/25 06:53:44;;;;;;;10.13;4.37;;;5.50;97.30;;;;;;5049244;28;20455;-80
2021/10/25 06:56:10;;;;;;;9.67;4.77;;;5.50;97.30;;;;;;5049238;28;20231;-82
2021/10/25 06:58:36;;;;;;;7.83;4.30;;;5.50;97.30;;;;;;5031242;28;20651;-80
2021/10/25 07:01:02;;;;;;;9.80;5.10;;;5.60;97.30;;;;;;5048636;28;20378;-80
2021/10/25 07:03:28;;;;;;;8.87;4.87;;;5.60;97.30;;;;;;5031358;28;20762;-80
2021/10/25 07:05:54;;;;;;;11.90;5.63;;;5.70;97.30;;;;;;5047485;28;20423;-80
2021/10/25 07:08:20;;;;;;;14.67;5.20;;;5.70;97.30;;;;;;5049073;28;20172;-81
2021/10/25 07:10:46;;;;;;;7.53;4.03;;;5.70;97.30;;;;;;5047750;28;20465;-80
2021/10/25 07:13:11;;;;;;;6.70;4.70;;;5.70;97.30;;;;;;5048145;28;20254;-80
2021/10/25 07:15:45;;;;;;;18.53;5.10;;;5.70;97.30;;;;;;5033366;28;20184;-80
2021/10/25 07:18:17;;;;;;;11.67;4.67;;;5.70;97.30;;;;;;5048790;28;20204;-80
2021/10/25 08:04:25;;;;;;;9.20;4.67;;;7.30;97.30;;;;;;5031617;28;20435;-79
2021/10/25 08:06:59;;;;;;;13.07;5.27;;;7.40;97.30;;;;;;5030332;28;20415;-80
2021/10/25 08:09:41;;;;;;;7.33;4.73;;;7.50;97.30;;;;;;5032665;28;20456;-80
2021/10/25 08:12:12;;;;;;;11.87;4.90;;;7.50;97.30;;;;;;5033621;28;20403;-80
2021/10/25 08:14:42;;;;;;;8.07;3.90;;;7.50;97.30;;;;;;5034261;28;20415;-80
2021/10/25 08:17:09;;;;;;;7.30;4.37;;;7.60;97.30;;;;;;5033585;28;20497;-78
2021/10/25 08:19:35;;;;;;;11.57;5.13;;;7.70;97.30;;;;;;5036070;28;20553;-80
2021/10/25 08:22:02;;;;;;;7.60;4.53;;;7.80;97.30;;;;;;5035214;28;21158;-79
2021/10/25 08:24:30;;;;;;;13.70;4.70;;;7.80;97.30;;;;;;5034688;28;20417;-80
2021/10/25 08:26:56;;;;;;;10.27;5.27;;;7.90;97.30;;;;;;5034945;28;20415;-79
2021/10/25 08:29:22;;;;;;;8.93;4.53;;;8.00;97.30;;;;;;5033917;28;20420;-80
2021/10/25 08:32:11;;;;;;;8.63;4.80;;;8.00;97.30;;;;;;5031448;28;20891;-81
2021/10/25 08:39:57;;;;;;;22.03;5.43;;;8.20;97.30;;;;;;5013498;28;20408;-81
2021/10/25 08:42:32;;;;;;;9.87;4.80;;;8.30;97.30;;;;;;5026902;28;20430;-80
2021/10/25 08:45:07;;;;;;;11.67;5.37;;;8.50;97.30;;;;;;5049402;28;20478;-81
2021/10/25 08:47:39;;;;;;;10.40;5.07;;;8.60;97.30;;;;;;5047105;28;20418;-78
2021/10/25 08:50:08;;;;;;;9.83;4.60;;;8.80;97.30;;;;;;5031838;28;20472;-78
2021/10/25 08:52:34;;;;;;;12.60;6.30;;;8.80;97.30;;;;;;5031566;28;20418;-81
2021/10/25 08:55:05;;;;;;;12.57;5.53;;;8.90;97.30;;;;;;5051493;28;20482;-81
2021/10/25 08:57:32;;;;;;;11.53;5.50;;;9.00;97.30;;;;;;5051451;28;20200;-81
2021/10/25 09:00:06;;;;;;;7.47;4.57;;;9.10;97.30;;;;;;5049024;28;20415;-77
2021/10/25 09:02:33;;;;;;;8.63;4.80;;;9.20;97.30;;;;;;5047337;28;20415;-78
2021/10/25 09:05:12;;;;;;;10.20;5.57;;;9.40;97.30;;;;;;5031858;28;20419;-78
2021/10/25 09:07:52;;;;;;;10.20;5.40;;;9.60;97.30;;;;;;5036303;28;20406;-81
2021/10/25 09:10:27;;;;;;;13.03;5.20;;;9.70;97.30;;;;;;5038446;28;20454;-78
2021/10/25 09:13:17;;;;;;;15.20;5.80;;;9.70;97.30;;;;;;5036839;28;20529;-77
2021/10/25 09:15:45;;;;;;;10.97;5.40;;;9.90;97.30;;;;;;5052467;28;20430;-80
2021/10/25 09:18:14;;;;;;;10.60;5.27;;;10.10;97.30;;;;;;5054012;28;20455;-78
2021/10/25 09:20:49;;;;;;;15.10;5.67;;;10.20;97.30;;;;;;5051031;28;20418;-77
2021/10/25 09:23:17;;;;;;;11.53;5.13;;;10.10;96.90;;;;;;5034250;28;20435;-78
2021/10/25 09:25:43;;;;;;;9.97;5.03;;;10.10;97.30;;;;;;5051119;28;20795;-78
2021/10/25 09:28:24;;;;;;;12.87;5.43;;;10.20;97.30;;;;;;5051564;28;20434;-81
2021/10/25 09:30:58;;;;;;;9.30;5.37;;;10.30;97.10;;;;;;5053114;28;20794;-77
2021/10/25 09:33:26;;;;;;;11.73;5.80;;;10.30;97.20;;;;;;5035364;28;20988;-77
2021/10/25 09:35:57;;;;;;;16.37;6.00;;;10.20;97.10;;;;;;5036904;28;20537;-81
2021/10/25 09:38:34;;;;;;;9.30;5.40;;;10.10;97.20;;;;;;5051199;28;20454;-76
2021/10/25 09:42:17;;;;;;;21.93;6.83;;;10.10;97.30;;;;;;5051840;28;20406;-79
2021/10/25 09:49:43;;;;;;;10.23;6.17;;;10.20;97.30;;;;;;5035378;28;20426;-77
2021/10/25 09:52:09;;;;;;;12.00;5.17;;;10.50;97.30;;;;;;5035347;28;20473;-77
2021/10/25 09:54:35;;;;;;;14.33;6.17;;;10.90;97.30;;;;;;5051560;28;20435;-78
2021/10/25 09:57:11;;;;;;;14.53;6.37;;;11.20;96.50;;;;;;5051322;28;20299;-78
2021/10/25 09:59:58;;;;;;;7.53;4.60;;;11.60;96.20;;;;;;5051120;28;20407;-77
2021/10/25 10:02:24;;;;;;;12.13;6.00;;;11.80;94.70;;;;;;5036136;28;20395;-79
2021/10/25 10:05:03;;;;;;;13.20;5.73;;;12.00;94.60;;;;;;5051099;28;20424;-80
2021/10/25 10:07:28;;;;;;;8.83;5.27;;;12.10;93.30;;;;;;5050262;28;20176;-79
2021/10/25 10:09:55;;;;;;;13.20;5.77;;;12.00;93.60;;;;;;5050014;28;20830;-78
2021/10/25 10:12:23;;;;;;;14.10;6.27;;;12.00;94.30;;;;;;5050110;28;20179;-76
2021/10/25 10:14:58;;;;;;;11.93;6.47;;;12.00;94.00;;;;;;5049867;28;20423;-78
2021/10/25 10:17:29;;;;;;;11.93;6.23;;;11.90;93.30;;;;;;5031241;28;20549;-78
2021/10/25 10:19:59;;;;;;;10.30;6.20;;;11.80;93.70;;;;;;5032464;28;20417;-79
2021/10/25 10:22:27;;;;;;;10.70;5.67;;;12.00;93.80;;;;;;5032578;28;20427;-78
2021/10/25 10:24:53;;;;;;;12.47;6.00;;;12.10;93.30;;;;;;5033014;28;20412;-81
2021/10/25 10:27:21;;;;;;;14.53;6.00;;;12.20;93.40;;;;;;5032260;28;20430;-78
2021/10/25 10:29:52;;;;;;;14.43;6.57;;;12.20;93.10;;;;;;5048408;28;20251;-78
2021/10/25 10:32:19;;;;;;;16.47;6.57;;;12.20;93.00;;;;;;5032743;28;20415;-81
2021/10/25 10:34:47;;;;;;;18.63;6.83;;;12.20;93.20;;;;;;5043498;28;20419;-78
2021/10/25 10:37:28;;;;;;;10.80;5.80;;;12.10;93.10;;;;;;5030489;28;20501;-78
2021/10/25 10:40:14;;;;;;;15.10;7.20;;;12.20;93.90;;;;;;5031373;28;20415;-81
2021/10/25 10:42:49;;;;;;;15.17;6.80;;;12.30;93.00;;;;;;5033365;28;20431;-78
2021/10/25 10:45:17;;;;;;;15.27;7.70;;;12.40;92.90;;;;;;5033782;28;20461;-77
2021/10/25 10:47:58;;;;;;;12.23;6.50;;;12.40;92.60;;;;;;5034047;28;20419;-79
2021/10/25 10:53:28;;;;;;;14.13;7.20;;;12.50;92.40;;;;;;5035390;28;20856;-81
2021/10/25 10:55:58;;;;;;;14.07;7.60;;;12.40;93.30;;;;;;5033268;28;20411;-77
2021/10/25 10:59:19;;;;;;;12.87;6.43;;;12.40;93.10;;;;;;5033879;28;20459;-78
2021/10/25 11:01:25;;;;;;;11.30;6.50;;;12.40;93.10;;;;;;5032500;28;20492;-79
2021/10/25 11:03:59;;;;;;;14.23;6.70;;;12.30;92.90;;;;;;5032422;28;20937;-77
2021/10/25 11:06:32;;;;;;;12.60;6.90;;;12.40;93.10;;;;;;5049679;28;20188;-78
2021/10/25 11:08:58;;;;;;;22.53;7.77;;;12.40;92.60;;;;;;5034176;28;20415;-80
2021/10/25 11:11:24;;;;;;;15.80;7.47;;;12.40;93.30;;;;;;5035128;28;20412;-77
2021/10/25 11:14:02;;;;;;;14.10;7.33;;;12.50;93.40;;;;;;5033755;28;20197;-80
2021/10/25 11:19:00;;;;;;;15.80;7.80;;;12.40;93.00;;;;;;5033598;28;20419;-78
2021/10/25 11:21:30;;;;;;;19.90;7.80;;;12.40;93.60;;;;;;5030442;28;20468;-79
2021/10/25 11:24:03;;;;;;;16.53;7.10;;;12.50;93.90;;;;;;5030495;28;20435;-81
2021/10/25 11:26:30;;;;;;;13.17;7.10;;;12.50;93.80;;;;;;5030517;28;20918;-81
2021/10/25 11:29:02;;;;;;;15.70;7.80;;;12.60;94.50;;;;;;5030407;28;20784;-78
2021/10/25 11:31:31;;;;;;;14.10;7.60;;;12.60;94.40;;;;;;5032658;28;20399;-81
2021/10/25 11:33:58;;;;;;;16.67;8.30;;;12.70;94.50;;;;;;5033222;28;20431;-81
2021/10/25 11:36:28;;;;;;;18.87;7.90;;;12.70;94.70;;;;;;5031415;28;20845;-79
2021/10/25 11:38:55;;;;;;;14.63;6.33;;;12.80;94.30;;;;;;5031776;28;20414;-77
2021/10/25 11:41:21;;;;;;;12.60;7.10;;;12.90;94.10;;;;;;5026902;28;20539;-81
2021/10/25 11:43:46;;;;;;;15.93;7.50;;;13.00;92.90;;;;;;5014119;28;20503;-82
2021/10/25 11:46:21;;;;;;;13.73;6.57;;;13.00;91.90;;;;;;5009275;28;20467;-80
2021/10/25 11:48:55;;;;;;;16.93;7.20;;;13.00;91.70;;;;;;5020443;28;20235;-80
2021/10/25 11:51:22;;;;;;;13.40;7.43;;;13.00;92.40;;;;;;5029473;28;20416;-79
2021/10/25 11:53:59;;;;;;;19.27;7.87;;;13.20;92.10;;;;;;5031246;28;20919;-78
2021/10/25 11:56:26;;;;;;;13.80;7.17;;;13.50;91.90;;;;;;5020290;28;20408;-78
2021/10/25 11:58:53;;;;;;;14.30;7.40;;;13.70;90.70;;;;;;5028923;28;20415;-81
2021/10/25 12:01:19;;;;;;;16.40;7.10;;;13.80;90.30;;;;;;5014723;28;20490;-81
2021/10/25 12:03:47;;;;;;;16.70;7.70;;;13.90;90.90;;;;;;5021034;28;20442;-78
2021/10/25 12:06:23;;;;;;;15.07;6.77;;;14.10;91.10;;;;;;5020625;28;20761;-77
2021/10/25 12:09:01;;;;;;;14.33;6.33;;;14.20;90.60;;;;;;5020185;28;20415;-77
2021/10/25 12:11:50;;;;;;;14.90;7.10;;;14.20;89.80;;;;;;5018791;28;20412;-79
2021/10/25 12:14:19;;;;;;;12.27;6.30;;;14.20;89.80;;;;;;5036293;28;20733;-79
2021/10/25 12:16:49;;;;;;;25.97;8.33;;;14.40;90.40;;;;;;5014634;28;20543;-80
2021/10/25 12:19:19;;;;;;;11.20;6.40;;;14.60;89.90;;;;;;5019553;28;20415;-75
2021/10/25 12:21:45;;;;;;;14.47;6.40;;;14.70;88.50;;;;;;5021346;28;20474;-79
2021/10/25 12:24:11;;;;;;;15.40;7.50;;;14.80;88.00;;;;;;5015815;28;21079;-80
2021/10/25 12:26:42;;;;;;;11.90;7.70;;;14.90;87.40;;;;;;5018721;28;20818;-77
2021/10/25 12:29:19;;;;;;;13.87;6.90;;;15.00;87.90;;;;;;5017994;28;20989;-82
2021/10/25 12:31:47;;;;;;;13.33;6.70;;;15.10;86.90;;;;;;5020199;28;20461;-77
2021/10/25 12:34:13;;;;;;;10.77;6.40;;;15.00;86.90;;;;;;5024257;28;20440;-79
2021/10/25 12:36:43;;;;;;;10.37;6.00;;;14.80;87.20;;;;;;5018807;28;20839;-79
2021/10/25 12:39:18;;;;;;;12.43;6.00;;;14.70;86.90;;;;;;5044495;28;20419;-78
2021/10/25 12:41:45;;;;;;;9.87;5.50;;;14.60;88.30;;;;;;5031141;28;20415;-77
2021/10/25 12:44:14;;;;;;;11.63;6.10;;;14.50;87.90;;;;;;5030748;28;20969;-79
2021/10/25 12:46:39;;;;;;;11.93;5.83;;;14.40;87.60;;;;;;5021515;28;20412;-82
2021/10/25 12:49:05;;;;;;;8.57;5.27;;;14.20;88.20;;;;;;5015815;28;20834;-79
2021/10/25 12:51:39;;;;;;;11.20;6.00;;;14.10;88.70;;;;;;5028405;28;20176;-80
2021/10/25 12:54:13;;;;;;;9.53;5.80;;;14.00;88.80;;;;;;5024281;28;20745;-79
2021/10/25 12:56:39;;;;;;;10.67;5.20;;;14.10;89.00;;;;;;5021943;28;20478;-81
2021/10/25 12:59:07;;;;;;;10.77;5.80;;;14.30;89.50;;;;;;5024233;28;20444;-79
2021/10/25 13:01:33;;;;;;;9.50;5.83;;;14.40;87.90;;;;;;5022411;28;20416;-80
2021/10/25 13:04:01;;;;;;;11.73;6.27;;;14.50;88.00;;;;;;5020023;28;21053;-79
2021/10/25 13:06:30;;;;;;;11.27;5.47;;;14.70;87.70;;;;;;5019340;28;20170;-78
2021/10/25 13:09:14;;;;;;;9.17;5.83;;;14.90;87.00;;;;;;5020566;28;20411;-79
2021/10/25 13:11:40;;;;;;;8.70;5.53;;;15.00;87.40;;;;;;5019729;28;20922;-77
2021/10/25 13:14:06;;;;;;;11.43;6.17;;;15.10;87.50;;;;;;5017171;28;20439;-78
2021/10/25 13:16:51;;;;;;;13.53;5.90;;;15.10;86.80;;;;;;5019398;28;20168;-79
2021/10/25 13:19:18;;;;;;;12.40;6.23;;;15.00;86.80;;;;;;5019794;28;20408;-78
2021/10/25 13:21:45;;;;;;;10.30;6.17;;;15.00;87.40;;;;;;5011184;28;20473;-77
2021/10/25 13:24:10;;;;;;;12.83;6.47;;;15.00;87.20;;;;;;5015243;28;20486;-78
2021/10/25 13:26:38;;;;;;;16.10;6.80;;;15.10;86.90;;;;;;5011017;28;20447;-79
2021/10/25 13:29:05;;;;;;;14.13;6.50;;;15.10;86.60;;;;;;5014940;28;20238;-82
2021/10/25 13:31:30;;;;;;;23.73;8.37;;;15.00;87.10;;;;;;5011853;28;20503;-78
2021/10/25 13:33:59;;;;;;;12.30;6.40;;;14.90;86.90;;;;;;5025198;28;20522;-78
2021/10/25 13:36:24;;;;;;;12.10;6.60;;;15.00;87.10;;;;;;5025211;28;20447;-79
2021/10/25 13:38:50;;;;;;;9.80;5.90;;;15.00;86.60;;;;;;5017926;28;20786;-79
2021/10/25 13:41:18;;;;;;;12.70;7.93;;;15.00;86.60;;;;;;5016535;28;20184;-80
2021/10/25 13:43:43;;;;;;;11.87;7.10;;;15.00;86.20;;;;;;5010739;28;20225;-78
2021/10/25 13:46:09;;;;;;;12.10;6.47;;;15.00;86.50;;;;;;5016902;28;20426;-79
2021/10/25 13:48:34;;;;;;;13.20;6.33;;;15.00;86.50;;;;;;5031352;28;20185;-79
2021/10/25 13:51:00;;;;;;;16.40;6.60;;;14.90;87.30;;;;;;5017118;28;20557;-79
2021/10/25 13:53:25;;;;;;;10.73;6.23;;;14.90;86.80;;;;;;5012995;28;20201;-79
2021/10/25 13:55:51;;;;;;;11.93;5.90;;;15.00;87.20;;;;;;5013270;28;20656;-79
2021/10/25 13:58:16;;;;;;;11.97;5.87;;;15.10;87.10;;;;;;5014693;28;20711;-79
2021/10/25 14:00:43;;;;;;;10.90;6.33;;;15.30;86.70;;;;;;5015951;28;20177;-79
2021/10/25 14:03:08;;;;;;;14.90;8.63;;;15.70;85.70;;;;;;5017389;28;20231;-79
2021/10/25 14:05:34;;;;;;;15.17;6.63;;;16.10;85.30;;;;;;5016561;28;20949;-78
2021/10/25 14:07:59;;;;;;;12.97;6.70;;;16.30;84.30;;;;;;5051823;28;20176;-80
2021/10/25 14:12:51;;;;;;;11.03;6.70;;;16.10;83.70;;;;;;5036487;28;20232;-79
2021/10/25 14:15:28;;;;;;;8.73;5.90;;;15.90;84.10;;;;;;5034810;28;20172;-79
2021/10/25 14:17:57;;;;;;;13.13;5.80;;;16.00;83.40;;;;;;5030461;28;20193;-80
2021/10/25 14:20:26;;;;;;;9.67;5.63;;;16.40;83.40;;;;;;5013698;28;20943;-79